createdAt,value
2018-05-12T00:00:37.871Z,65.2
2018-05-12T00:01:39.244Z,65.0
2018-05-12T00:02:40.609Z,64.9
2018-05-12T00:03:41.983Z,65.1
2018-05-12T00:04:43.339Z,65.0
2018-05-12T00:05:44.729Z,64.9
2018-05-12T00:06:46.093Z,65.7
2018-05-12T00:07:47.456Z,65.5
2018-05-12T00:08:48.818Z,65.6
2018-05-12T00:09:50.234Z,65.6
2018-05-12T00:10:51.603Z,65.3
2018-05-12T00:11:52.973Z,65.7
2018-05-12T00:12:54.343Z,65.2
2018-05-12T00:13:55.731Z,65.7
2018-05-12T00:14:57.165Z,65.4
2018-05-12T00:15:58.462Z,65.6
2018-05-12T00:16:59.827Z,65.6
2018-05-12T00:18:01.196Z,65.3
2018-05-12T00:19:02.567Z,65.7
2018-05-12T00:20:03.939Z,65.8
2018-05-12T00:21:05.327Z,65.6
2018-05-12T00:22:06.705Z,66.0
2018-05-12T00:23:08.073Z,66.0
2018-05-12T00:24:09.437Z,66.2
2018-05-12T00:25:10.809Z,66.1
2018-05-12T00:26:12.402Z,65.9
2018-05-12T00:27:13.769Z,65.9
2018-05-12T00:28:15.145Z,66.0
2018-05-12T00:29:16.518Z,66.1
2018-05-12T00:30:17.883Z,65.7
2018-05-12T00:31:19.273Z,65.8
2018-05-12T00:32:20.632Z,66.0
2018-05-12T00:33:22.002Z,66.1
2018-05-12T00:34:23.375Z,66.0
2018-05-12T00:35:24.729Z,65.9
2018-05-12T00:36:26.100Z,66.4
2018-05-12T00:37:27.463Z,66.1
2018-05-12T00:38:28.828Z,66.7
2018-05-12T00:39:30.200Z,66.3
2018-05-12T00:40:31.559Z,66.3
2018-05-12T00:41:32.936Z,66.2
2018-05-12T00:42:34.290Z,67.0
2018-05-12T00:43:35.662Z,66.7
2018-05-12T00:44:37.035Z,66.9
2018-05-12T00:45:38.409Z,66.5
2018-05-12T00:46:39.781Z,66.7
2018-05-12T00:47:41.150Z,66.8
2018-05-12T00:48:42.527Z,66.8
2018-05-12T00:49:43.885Z,66.4
2018-05-12T00:50:45.253Z,67.0
2018-05-12T00:51:46.620Z,67.1
2018-05-12T00:52:47.988Z,66.9
2018-05-12T00:53:49.359Z,66.9
2018-05-12T00:54:50.731Z,66.9
2018-05-12T00:55:52.120Z,67.3
2018-05-12T00:56:53.485Z,67.2
2018-05-12T00:57:54.843Z,67.0
2018-05-12T00:58:56.220Z,67.5
2018-05-12T00:59:57.588Z,67.3
2018-05-12T01:00:58.955Z,67.4
2018-05-12T01:02:00.348Z,67.5
2018-05-12T01:03:01.725Z,67.3
2018-05-12T01:04:03.093Z,67.2
2018-05-12T01:05:04.458Z,67.8
2018-05-12T01:06:05.828Z,67.9
2018-05-12T01:07:07.198Z,67.8
2018-05-12T01:08:08.568Z,67.8
2018-05-12T01:09:09.931Z,67.5
2018-05-12T01:10:11.296Z,67.5
2018-05-12T01:11:12.674Z,67.5
2018-05-12T01:12:14.025Z,67.8
2018-05-12T01:13:15.397Z,68.0
2018-05-12T01:14:16.782Z,67.7
2018-05-12T01:15:18.156Z,68.0
2018-05-12T01:16:19.516Z,68.4
2018-05-12T01:17:20.882Z,68.2
2018-05-12T01:18:22.241Z,68.2
2018-05-12T01:19:23.610Z,68.3
2018-05-12T01:20:24.978Z,67.9
2018-05-12T01:21:26.386Z,68.0
2018-05-12T01:22:27.752Z,68.0
2018-05-12T01:23:29.132Z,67.9
2018-05-12T01:24:30.496Z,68.5
2018-05-12T01:25:31.863Z,68.3
2018-05-12T01:26:33.231Z,68.2
2018-05-12T01:27:34.597Z,68.3
2018-05-12T01:28:35.990Z,68.6
2018-05-12T01:29:37.360Z,68.9
2018-05-12T01:30:38.765Z,68.7
2018-05-12T01:31:40.138Z,68.8
2018-05-12T01:32:41.507Z,68.7
2018-05-12T01:33:42.873Z,68.6
2018-05-12T01:34:44.235Z,68.6
2018-05-12T01:35:45.603Z,68.7
2018-05-12T01:36:46.967Z,68.8
2018-05-12T01:37:48.333Z,69.0
2018-05-12T01:38:49.693Z,69.0
2018-05-12T01:39:51.060Z,69.0
2018-05-12T01:40:52.424Z,68.9
2018-05-12T01:41:53.786Z,68.7
2018-05-12T01:42:55.175Z,69.0
2018-05-12T01:43:56.546Z,68.8
2018-05-12T01:44:57.916Z,68.7
2018-05-12T01:45:59.282Z,68.6
2018-05-12T01:47:00.653Z,68.7
2018-05-12T01:48:02.020Z,69.0
2018-05-12T01:49:03.389Z,69.1
2018-05-12T01:50:04.757Z,69.6
2018-05-12T01:51:06.139Z,69.5
2018-05-12T01:52:07.504Z,69.3
2018-05-12T01:53:08.871Z,69.7
2018-05-12T01:54:10.234Z,69.6
2018-05-12T01:55:11.600Z,69.8
2018-05-12T01:56:12.967Z,70.0
2018-05-12T01:57:14.332Z,70.1
2018-05-12T01:58:15.704Z,70.0
2018-05-12T01:59:17.065Z,69.8
2018-05-12T02:00:18.436Z,70.3
2018-05-12T02:01:19.801Z,70.6
2018-05-12T02:02:21.176Z,70.9
2018-05-12T02:03:22.573Z,70.7
2018-05-12T02:04:23.943Z,70.6
2018-05-12T02:05:25.306Z,70.4
2018-05-12T02:06:26.667Z,71.1
2018-05-12T02:07:28.030Z,70.8
2018-05-12T02:08:29.393Z,71.0
2018-05-12T02:09:30.758Z,71.3
2018-05-12T02:10:32.125Z,71.3
2018-05-12T02:11:33.486Z,71.4
2018-05-12T02:12:34.845Z,71.5
2018-05-12T02:13:36.225Z,71.6
2018-05-12T02:14:37.594Z,71.7
2018-05-12T02:15:38.961Z,71.8
2018-05-12T02:16:40.385Z,71.6
2018-05-12T02:17:41.750Z,72.0
2018-05-12T02:18:43.113Z,72.3
2018-05-12T02:19:44.474Z,72.5
2018-05-12T02:20:45.836Z,72.3
2018-05-12T02:21:47.156Z,72.2
2018-05-12T02:22:48.515Z,72.9
2018-05-12T02:23:49.881Z,72.6
2018-05-12T02:24:51.240Z,73.2
2018-05-12T02:25:52.609Z,72.9
2018-05-12T02:26:53.976Z,72.8
2018-05-12T02:27:55.341Z,73.1
2018-05-12T02:28:56.759Z,73.3
2018-05-12T02:29:58.140Z,72.9
2018-05-12T02:30:59.512Z,73.5
2018-05-12T02:32:00.874Z,73.8
2018-05-12T02:33:02.243Z,73.8
2018-05-12T02:34:03.602Z,73.5
2018-05-12T02:35:04.967Z,73.8
2018-05-12T02:36:06.335Z,74.1
2018-05-12T02:37:07.707Z,74.3
2018-05-12T02:38:09.068Z,74.4
2018-05-12T02:39:10.443Z,74.3
2018-05-12T02:40:11.889Z,74.9
2018-05-12T02:41:13.254Z,74.8
2018-05-12T02:42:14.616Z,74.7
2018-05-12T02:43:15.986Z,74.9
2018-05-12T02:44:17.353Z,74.7
2018-05-12T02:45:18.714Z,74.9
2018-05-12T02:46:20.078Z,75.0
2018-05-12T02:47:21.441Z,75.8
2018-05-12T02:48:22.808Z,75.6
2018-05-12T02:49:24.176Z,75.6
2018-05-12T02:50:25.539Z,75.4
2018-05-12T02:51:26.977Z,75.7
2018-05-12T02:52:28.341Z,76.0
2018-05-12T02:53:29.711Z,76.0
2018-05-12T02:54:31.076Z,76.3
2018-05-12T02:55:32.458Z,76.1
2018-05-12T02:56:33.829Z,76.1
2018-05-12T02:57:35.198Z,75.8
2018-05-12T02:58:36.615Z,76.8
2018-05-12T02:59:37.981Z,76.7
2018-05-12T03:00:39.337Z,76.5
2018-05-12T03:01:40.703Z,76.6
2018-05-12T03:02:42.074Z,77.1
2018-05-12T03:03:43.442Z,77.4
2018-05-12T03:04:44.807Z,77.3
2018-05-12T03:05:46.181Z,77.5
2018-05-12T03:06:47.540Z,77.1
2018-05-12T03:07:48.905Z,77.4
2018-05-12T03:08:50.279Z,77.4
2018-05-12T03:09:51.636Z,78.0
2018-05-12T03:10:53.005Z,77.9
2018-05-12T03:11:54.376Z,77.8
2018-05-12T03:12:55.739Z,77.7
2018-05-12T03:13:57.111Z,77.9
2018-05-12T03:14:58.474Z,78.3
2018-05-12T03:15:59.847Z,78.0
2018-05-12T03:17:01.215Z,77.6
2018-05-12T03:18:02.585Z,77.4
2018-05-12T03:19:03.950Z,77.6
2018-05-12T03:20:05.320Z,78.3
2018-05-12T03:21:06.687Z,78.1
2018-05-12T03:22:08.045Z,78.8
2018-05-12T03:23:09.417Z,78.6
2018-05-12T03:24:10.784Z,79.0
2018-05-12T03:25:12.144Z,79.0
2018-05-12T03:26:13.512Z,78.6
2018-05-12T03:27:14.877Z,79.1
2018-05-12T03:28:16.235Z,78.9
2018-05-12T03:29:17.609Z,78.9
2018-05-12T03:30:18.969Z,78.8
2018-05-12T03:31:20.338Z,78.9
2018-05-12T03:32:21.701Z,78.9
2018-05-12T03:33:23.090Z,79.1
2018-05-12T03:34:24.464Z,79.6
2018-05-12T03:35:25.831Z,78.9
2018-05-12T03:36:27.197Z,79.4
2018-05-12T03:37:28.584Z,79.0
2018-05-12T03:38:29.943Z,79.4
2018-05-12T03:39:31.311Z,79.6
2018-05-12T03:40:32.670Z,79.6
2018-05-12T03:41:34.036Z,79.6
2018-05-12T03:42:35.408Z,79.5
2018-05-12T03:43:36.776Z,79.7
2018-05-12T03:44:38.137Z,80.0
2018-05-12T03:45:39.508Z,79.4
2018-05-12T03:46:40.871Z,80.3
2018-05-12T03:47:42.236Z,80.2
2018-05-12T03:48:43.600Z,80.0
2018-05-12T03:49:44.960Z,80.2
2018-05-12T03:50:46.333Z,80.2
2018-05-12T03:51:47.705Z,80.5
2018-05-12T03:52:49.071Z,80.4
2018-05-12T03:53:50.431Z,80.8
2018-05-12T03:54:51.813Z,80.5
2018-05-12T03:55:53.133Z,80.8
2018-05-12T03:56:54.512Z,81.2
2018-05-12T03:57:55.873Z,81.0
2018-05-12T03:58:57.258Z,81.0
2018-05-12T03:59:58.660Z,80.9
2018-05-12T04:01:00.021Z,81.3
2018-05-12T04:02:01.392Z,81.0
2018-05-12T04:03:02.764Z,80.8
2018-05-12T04:04:04.125Z,80.9
2018-05-12T04:05:05.504Z,80.8
2018-05-12T04:06:06.878Z,81.4
2018-05-12T04:07:08.249Z,81.1
2018-05-12T04:08:09.615Z,81.9
2018-05-12T04:09:10.947Z,80.9
2018-05-12T04:10:12.306Z,81.2
2018-05-12T04:11:13.676Z,81.7
2018-05-12T04:12:15.039Z,81.7
2018-05-12T04:13:16.403Z,81.6
2018-05-12T04:14:17.811Z,81.8
2018-05-12T04:15:19.183Z,82.0
2018-05-12T04:16:20.546Z,82.0
2018-05-12T04:17:21.919Z,81.9
2018-05-12T04:18:23.284Z,81.9
2018-05-12T04:19:24.658Z,81.8
2018-05-12T04:20:26.026Z,81.9
2018-05-12T04:21:27.410Z,81.7
2018-05-12T04:22:28.783Z,82.3
2018-05-12T04:23:30.177Z,82.2
2018-05-12T04:24:31.536Z,82.4
2018-05-12T04:25:32.911Z,82.4
2018-05-12T04:26:34.286Z,82.2
2018-05-12T04:27:35.652Z,82.1
2018-05-12T04:28:37.028Z,82.5
2018-05-12T04:29:38.398Z,82.5
2018-05-12T04:30:39.772Z,82.3
2018-05-12T04:31:41.142Z,82.1
2018-05-12T04:32:42.512Z,82.4
2018-05-12T04:33:43.882Z,82.4
2018-05-12T04:34:45.247Z,82.5
2018-05-12T04:35:46.623Z,82.8
2018-05-12T04:36:48.093Z,82.5
2018-05-12T04:37:49.332Z,82.7
2018-05-12T04:38:50.708Z,82.5
2018-05-12T04:39:52.073Z,82.8
2018-05-12T04:40:53.437Z,82.8
2018-05-12T04:41:54.805Z,82.4
2018-05-12T04:42:56.179Z,81.8
2018-05-12T04:43:57.618Z,82.2
2018-05-12T04:44:58.989Z,81.7
2018-05-12T04:46:00.292Z,81.6
2018-05-12T04:47:01.746Z,82.2
2018-05-12T04:48:03.117Z,82.0
2018-05-12T04:49:04.538Z,81.8
2018-05-12T04:50:05.905Z,82.0
2018-05-12T04:51:07.342Z,81.7
2018-05-12T04:52:08.722Z,81.8
2018-05-12T04:53:10.148Z,81.9
2018-05-12T04:54:11.534Z,81.8
2018-05-12T04:55:12.940Z,81.9
2018-05-12T04:56:14.311Z,81.9
2018-05-12T04:57:15.733Z,82.1
2018-05-12T04:58:17.145Z,81.4
2018-05-12T04:59:18.569Z,81.4
2018-05-12T05:00:19.938Z,81.2
2018-05-12T05:01:21.413Z,80.8
2018-05-12T05:02:22.810Z,80.7
2018-05-12T05:03:24.191Z,80.2
2018-05-12T05:04:25.560Z,79.7
2018-05-12T05:05:26.934Z,79.7
2018-05-12T05:06:28.334Z,79.7
2018-05-12T05:07:29.721Z,79.1
2018-05-12T05:08:31.106Z,79.2
2018-05-12T05:09:32.468Z,79.3
2018-05-12T05:10:33.859Z,79.4
2018-05-12T05:11:35.341Z,79.1
2018-05-12T05:12:36.824Z,79.1
2018-05-12T05:13:38.212Z,78.9
2018-05-12T05:14:39.585Z,78.7
2018-05-12T05:15:42.633Z,79.4
2018-05-12T05:16:47.811Z,78.7
2018-05-12T05:17:49.183Z,78.9
2018-05-12T05:18:50.547Z,78.8
2018-05-12T05:19:51.918Z,79.2
2018-05-12T05:20:53.345Z,79.6
2018-05-12T05:21:54.715Z,79.6
2018-05-12T05:22:56.084Z,79.4
2018-05-12T05:23:57.763Z,79.3
2018-05-12T05:24:59.566Z,79.5
2018-05-12T05:26:00.941Z,79.8
2018-05-12T05:27:02.334Z,79.7
2018-05-12T05:28:03.754Z,79.7
2018-05-12T05:29:05.169Z,79.8
2018-05-12T05:30:06.581Z,79.8
2018-05-12T05:31:07.961Z,79.9
2018-05-12T05:32:09.412Z,79.7
2018-05-12T05:33:10.793Z,79.4
2018-05-12T05:34:12.169Z,79.6
2018-05-12T05:35:13.620Z,79.6
2018-05-12T05:36:14.920Z,79.7
2018-05-12T05:37:16.300Z,79.5
2018-05-12T05:38:17.669Z,79.8
2018-05-12T05:39:19.045Z,79.8
2018-05-12T05:40:20.408Z,79.6
2018-05-12T05:41:21.791Z,79.5
2018-05-12T05:42:23.173Z,79.4
2018-05-12T05:43:24.534Z,79.5
2018-05-12T05:44:25.911Z,79.5
2018-05-12T05:45:27.285Z,79.6
2018-05-12T05:46:28.661Z,79.5
2018-05-12T05:47:30.036Z,79.6
2018-05-12T05:48:31.413Z,79.9
2018-05-12T05:49:32.784Z,79.9
2018-05-12T05:50:34.171Z,79.7
2018-05-12T05:51:35.540Z,79.6
2018-05-12T05:52:38.998Z,79.3
2018-05-12T05:53:41.307Z,79.2
2018-05-12T05:54:42.685Z,79.1
2018-05-12T05:55:44.176Z,78.7
2018-05-12T05:56:45.542Z,78.3
2018-05-12T05:57:46.983Z,78.8
2018-05-12T05:58:48.377Z,78.1
2018-05-12T05:59:49.770Z,77.7
2018-05-12T06:00:51.138Z,77.2
2018-05-12T06:01:52.518Z,77.6
2018-05-12T06:02:53.902Z,76.5
2018-05-12T06:03:55.272Z,77.0
2018-05-12T06:04:56.646Z,76.5
2018-05-12T06:05:58.020Z,76.3
2018-05-12T06:06:59.409Z,76.1
2018-05-12T06:08:00.747Z,75.7
2018-05-12T06:09:02.125Z,75.7
2018-05-12T06:10:03.495Z,75.9
2018-05-12T06:11:04.979Z,76.0
2018-05-12T06:12:06.353Z,75.5
2018-05-12T06:13:07.736Z,75.4
2018-05-12T06:14:09.131Z,75.6
2018-05-12T06:15:10.517Z,75.8
2018-05-12T06:16:11.889Z,76.0
2018-05-12T06:17:13.276Z,76.0
2018-05-12T06:18:14.670Z,76.3
2018-05-12T06:19:16.051Z,76.0
2018-05-12T06:20:17.433Z,75.7
2018-05-12T06:21:18.835Z,75.8
2018-05-12T06:22:20.200Z,75.7
2018-05-12T06:23:21.577Z,75.3
2018-05-12T06:24:22.961Z,75.1
2018-05-12T06:25:24.339Z,74.6
2018-05-12T06:26:25.712Z,74.8
2018-05-12T06:27:27.092Z,74.7
2018-05-12T06:28:28.470Z,74.3
2018-05-12T06:29:29.849Z,74.0
2018-05-12T06:30:31.237Z,74.0
2018-05-12T06:31:32.612Z,73.8
2018-05-12T06:32:33.998Z,73.7
2018-05-12T06:33:35.397Z,73.5
2018-05-12T06:34:36.745Z,73.8
2018-05-12T06:35:38.120Z,73.5
2018-05-12T06:36:39.521Z,73.5
2018-05-12T06:37:40.900Z,73.7
2018-05-12T06:38:42.282Z,73.9
2018-05-12T06:39:43.673Z,73.5
2018-05-12T06:40:45.051Z,73.7
2018-05-12T06:41:46.441Z,73.5
2018-05-12T06:42:47.824Z,73.6
2018-05-12T06:43:49.209Z,73.3
2018-05-12T06:44:50.599Z,73.3
2018-05-12T06:45:51.973Z,73.0
2018-05-12T06:46:53.353Z,72.6
2018-05-12T06:47:54.739Z,72.6
2018-05-12T06:48:56.115Z,72.5
2018-05-12T06:49:57.496Z,72.3
2018-05-12T06:50:58.992Z,71.8
2018-05-12T06:52:40.656Z,71.7
2018-05-12T06:53:41.947Z,71.8
2018-05-12T06:54:43.319Z,71.1
2018-05-12T06:55:44.697Z,70.4
2018-05-12T06:56:46.093Z,71.1
2018-05-12T06:57:47.489Z,70.6
2018-05-12T06:58:48.892Z,70.4
2018-05-12T06:59:50.531Z,70.5
2018-05-12T07:00:52.162Z,70.0
2018-05-12T07:01:53.517Z,69.4
2018-05-12T07:02:54.930Z,69.6
2018-05-12T07:03:56.317Z,69.6
2018-05-12T07:04:57.741Z,68.9
2018-05-12T07:05:59.180Z,69.0
2018-05-12T07:07:00.656Z,68.4
2018-05-12T07:08:02.080Z,68.1
2018-05-12T07:09:03.466Z,68.6
2018-05-12T07:10:04.851Z,68.1
2018-05-12T07:11:06.247Z,68.0
2018-05-12T07:12:07.652Z,68.1
2018-05-12T07:13:09.028Z,68.0
2018-05-12T07:14:10.421Z,67.3
2018-05-12T07:15:11.816Z,67.5
2018-05-12T07:16:13.192Z,67.0
2018-05-12T07:17:14.573Z,66.7
2018-05-12T07:18:15.957Z,66.4
2018-05-12T07:19:17.346Z,66.7
2018-05-12T07:20:18.722Z,66.5
2018-05-12T07:21:20.116Z,66.2
2018-05-12T07:22:21.500Z,66.4
2018-05-12T07:23:22.932Z,65.7
2018-05-12T07:24:24.309Z,65.9
2018-05-12T07:25:25.710Z,65.2
2018-05-12T07:26:27.106Z,65.2
2018-05-12T07:27:28.492Z,64.9
2018-05-12T07:28:29.884Z,64.5
2018-05-12T07:29:31.274Z,65.0
2018-05-12T07:30:32.652Z,64.4
2018-05-12T07:31:34.037Z,64.1
2018-05-12T07:32:35.430Z,63.7
2018-05-12T07:33:36.825Z,64.3
2018-05-12T07:34:38.228Z,63.7
2018-05-12T07:35:39.618Z,63.2
2018-05-12T07:36:40.999Z,63.5
2018-05-12T07:37:42.387Z,63.4
2018-05-12T07:38:43.773Z,63.1
2018-05-12T07:39:45.160Z,63.3
2018-05-12T07:40:46.545Z,63.0
2018-05-12T07:41:47.946Z,63.3
2018-05-12T07:42:49.379Z,63.2
2018-05-12T07:43:50.776Z,63.2
2018-05-12T07:44:52.174Z,63.4
2018-05-12T07:45:53.574Z,63.3
2018-05-12T07:46:55.016Z,63.3
2018-05-12T07:47:56.444Z,62.8
2018-05-12T07:48:57.828Z,62.5
2018-05-12T07:49:59.227Z,62.2
2018-05-12T07:51:00.602Z,62.1
2018-05-12T07:52:02.003Z,62.2
2018-05-12T07:53:03.390Z,62.1
2018-05-12T07:54:04.780Z,62.1
2018-05-12T07:55:06.188Z,62.0
2018-05-12T07:56:07.579Z,61.8
2018-05-12T07:57:08.974Z,61.6
2018-05-12T07:58:10.392Z,61.9
2018-05-12T07:59:11.782Z,61.3
2018-05-12T08:00:13.169Z,61.2
2018-05-12T08:01:14.557Z,60.4
2018-05-12T08:02:17.145Z,61.2
2018-05-12T08:03:18.508Z,61.3
2018-05-12T08:04:20.136Z,61.3
2018-05-12T08:05:21.953Z,61.5
2018-05-12T08:06:23.352Z,61.2
2018-05-12T08:07:24.851Z,61.3
2018-05-12T08:08:26.257Z,60.8
2018-05-12T08:09:27.673Z,60.9
2018-05-12T08:10:29.073Z,60.6
2018-05-12T08:11:30.467Z,61.0
2018-05-12T08:12:31.863Z,61.0
2018-05-12T08:13:33.256Z,60.7
2018-05-12T08:14:34.648Z,61.4
2018-05-12T08:15:36.141Z,61.3
2018-05-12T08:16:38.194Z,61.0
2018-05-12T08:17:40.243Z,60.8
2018-05-12T08:18:41.738Z,60.6
2018-05-12T08:19:43.209Z,61.2
2018-05-12T08:20:44.603Z,60.7
2018-05-12T08:21:45.993Z,60.7
2018-05-12T08:22:47.406Z,61.1
2018-05-12T08:23:48.785Z,60.8
2018-05-12T08:24:50.182Z,60.3
2018-05-12T08:25:51.628Z,60.1
2018-05-12T08:26:53.142Z,60.6
2018-05-12T08:27:54.426Z,60.1
2018-05-12T08:28:55.839Z,60.2
2018-05-12T08:29:57.270Z,59.6
2018-05-12T08:30:58.669Z,59.4
2018-05-12T08:32:00.077Z,59.4
2018-05-12T08:33:01.485Z,59.3
2018-05-12T08:34:02.878Z,59.7
2018-05-12T08:35:04.260Z,59.4
2018-05-12T08:36:05.655Z,59.1
2018-05-12T08:37:07.048Z,59.4
2018-05-12T08:38:08.451Z,59.0
2018-05-12T08:39:09.855Z,58.8
2018-05-12T08:40:11.249Z,59.1
2018-05-12T08:41:12.633Z,58.0
2018-05-12T08:42:14.025Z,57.9
2018-05-12T08:43:15.410Z,57.7
2018-05-12T08:44:16.803Z,57.5
2018-05-12T08:45:18.192Z,57.5
2018-05-12T08:46:19.588Z,57.4
2018-05-12T08:47:20.980Z,57.3
2018-05-12T08:48:22.446Z,57.5
2018-05-12T08:49:23.761Z,57.6
2018-05-12T08:50:25.157Z,58.0
2018-05-12T08:51:26.546Z,57.9
2018-05-12T08:52:27.954Z,57.3
2018-05-12T08:53:29.333Z,57.3
2018-05-12T08:54:30.739Z,56.7
2018-05-12T08:55:32.130Z,56.4
2018-05-12T08:56:33.523Z,56.8
2018-05-12T08:57:34.917Z,55.8
2018-05-12T08:58:36.310Z,56.2
2018-05-12T08:59:37.703Z,55.5
2018-05-12T09:00:39.093Z,55.7
2018-05-12T09:01:40.507Z,55.6
2018-05-12T09:02:41.898Z,55.8
2018-05-12T09:03:43.280Z,55.5
2018-05-12T09:04:44.682Z,55.9
2018-05-12T09:05:46.104Z,55.5
2018-05-12T09:06:48.763Z,55.6
2018-05-12T09:07:50.175Z,54.9
2018-05-12T09:08:51.573Z,55.0
2018-05-12T09:09:52.959Z,55.1
2018-05-12T09:10:54.366Z,55.2
2018-05-12T09:11:55.772Z,55.2
2018-05-12T09:12:57.178Z,55.0
2018-05-12T09:13:58.560Z,55.1
2018-05-12T09:15:00.010Z,55.0
2018-05-12T09:16:01.423Z,54.8
2018-05-12T09:17:02.819Z,54.8
2018-05-12T09:18:04.243Z,54.4
2018-05-12T09:19:05.758Z,54.2
2018-05-12T09:20:07.152Z,54.0
2018-05-12T09:21:08.634Z,53.6
2018-05-12T09:22:10.038Z,53.6
2018-05-12T09:23:11.533Z,53.7
2018-05-12T09:24:12.929Z,53.5
2018-05-12T09:25:14.328Z,53.3
2018-05-12T09:26:15.719Z,53.0
2018-05-12T09:27:17.119Z,53.6
2018-05-12T09:28:18.510Z,53.0
2018-05-12T09:29:19.957Z,53.2
2018-05-12T09:30:21.354Z,53.0
2018-05-12T09:31:22.810Z,53.5
2018-05-12T09:32:24.206Z,52.8
2018-05-12T09:33:25.607Z,52.7
2018-05-12T09:34:27.010Z,51.8
2018-05-12T09:35:28.394Z,51.5
2018-05-12T09:36:29.796Z,51.1
2018-05-12T09:37:31.202Z,51.5
2018-05-12T09:38:32.600Z,50.9
2018-05-12T09:39:34.000Z,50.6
2018-05-12T09:40:35.392Z,50.8
2018-05-12T09:41:36.860Z,51.7
2018-05-12T09:42:38.327Z,51.3
2018-05-12T09:43:39.624Z,51.1
2018-05-12T09:44:41.077Z,51.3
2018-05-12T09:45:42.475Z,51.2
2018-05-12T09:46:43.874Z,50.8
2018-05-12T09:47:45.293Z,50.7
2018-05-12T09:48:46.689Z,50.5
2018-05-12T09:49:48.557Z,50.3
2018-05-12T09:50:49.948Z,51.0
2018-05-12T09:51:51.358Z,50.6
2018-05-12T09:52:52.759Z,50.6
2018-05-12T09:53:54.172Z,50.3
2018-05-12T09:54:55.568Z,50.1
2018-05-12T09:55:56.977Z,50.4
2018-05-12T09:56:58.370Z,50.0
2018-05-12T09:57:59.772Z,50.5
2018-05-12T09:59:01.239Z,50.6
2018-05-12T10:00:02.632Z,50.6
2018-05-12T10:01:04.016Z,50.3
2018-05-12T10:02:05.404Z,50.1
2018-05-12T10:03:06.857Z,50.3
2018-05-12T10:04:08.255Z,49.7
2018-05-12T10:05:09.653Z,49.9
2018-05-12T10:06:11.116Z,49.5
2018-05-12T10:07:12.512Z,49.9
2018-05-12T10:08:13.905Z,49.9
2018-05-12T10:09:15.304Z,49.0
2018-05-12T10:10:16.695Z,49.0
2018-05-12T10:11:18.090Z,49.0
2018-05-12T10:12:19.489Z,48.9
2018-05-12T10:13:20.923Z,48.7
2018-05-12T10:14:22.307Z,48.9
2018-05-12T10:15:23.731Z,48.8
2018-05-12T10:16:25.099Z,48.8
2018-05-12T10:17:26.504Z,48.9
2018-05-12T10:18:27.911Z,48.6
2018-05-12T10:19:29.323Z,48.4
2018-05-12T10:20:30.767Z,48.2
2018-05-12T10:21:32.163Z,48.8
2018-05-12T10:22:33.517Z,48.8
2018-05-12T10:23:34.935Z,48.5
2018-05-12T10:24:36.334Z,48.7
2018-05-12T10:25:37.735Z,48.5
2018-05-12T10:26:39.142Z,48.5
2018-05-12T10:27:40.552Z,48.4
2018-05-12T10:28:42.016Z,47.9
2018-05-12T10:29:43.318Z,47.7
2018-05-12T10:30:44.722Z,47.4
2018-05-12T10:31:46.111Z,47.4
2018-05-12T10:32:47.511Z,47.4
2018-05-12T10:33:48.906Z,47.6
2018-05-12T10:34:50.303Z,47.7
2018-05-12T10:35:51.700Z,47.0
2018-05-12T10:36:53.095Z,46.7
2018-05-12T10:37:54.505Z,46.1
2018-05-12T10:38:55.963Z,46.1
2018-05-12T10:39:57.249Z,45.6
2018-05-12T10:40:58.647Z,45.5
2018-05-12T10:42:00.039Z,45.3
2018-05-12T10:43:01.451Z,45.0
2018-05-12T10:44:02.854Z,44.8
2018-05-12T10:45:04.245Z,44.2
2018-05-12T10:46:05.665Z,44.4
2018-05-12T10:47:07.077Z,43.9
2018-05-12T10:48:08.472Z,43.8
2018-05-12T10:49:09.868Z,43.9
2018-05-12T10:50:11.313Z,43.6
2018-05-12T10:51:12.720Z,43.4
2018-05-12T10:52:14.117Z,43.2
2018-05-12T10:53:15.519Z,43.2
2018-05-12T10:54:16.914Z,42.7
2018-05-12T10:55:18.319Z,42.8
2018-05-12T10:56:19.722Z,42.6
2018-05-12T10:57:21.121Z,42.5
2018-05-12T10:58:22.525Z,42.2
2018-05-12T10:59:23.927Z,41.9
2018-05-12T11:00:25.328Z,41.1
2018-05-12T11:01:26.736Z,42.0
2018-05-12T11:02:28.134Z,41.8
2018-05-12T11:03:29.562Z,42.1
2018-05-12T11:04:30.979Z,42.3
2018-05-12T11:05:32.378Z,41.7
2018-05-12T11:06:33.771Z,42.3
2018-05-12T11:07:35.175Z,42.9
2018-05-12T11:08:36.575Z,43.0
2018-05-12T11:09:38.067Z,42.6
2018-05-12T11:10:39.393Z,43.0
2018-05-12T11:11:40.786Z,43.0
2018-05-12T11:12:42.200Z,43.0
2018-05-12T11:13:43.588Z,43.0
2018-05-12T11:14:44.977Z,42.9
2018-05-12T11:15:46.386Z,42.9
2018-05-12T11:16:47.795Z,42.7
2018-05-12T11:17:49.194Z,42.8
2018-05-12T11:18:50.584Z,42.4
2018-05-12T11:19:51.984Z,42.9
2018-05-12T11:20:53.376Z,42.7
2018-05-12T11:21:54.814Z,43.0
2018-05-12T11:22:56.134Z,43.0
2018-05-12T11:23:57.549Z,42.6
2018-05-12T11:24:58.939Z,42.8
2018-05-12T11:26:00.333Z,42.5
2018-05-12T11:27:01.740Z,42.8
2018-05-12T11:28:03.159Z,42.8
2018-05-12T11:29:04.549Z,42.6
2018-05-12T11:30:05.942Z,42.5
2018-05-12T11:31:07.380Z,43.2
2018-05-12T11:32:08.838Z,42.8
2018-05-12T11:33:10.178Z,42.8
2018-05-12T11:34:11.585Z,42.7
2018-05-12T11:35:12.984Z,42.4
2018-05-12T11:36:14.371Z,42.6
2018-05-12T11:37:15.772Z,42.5
2018-05-12T11:38:17.169Z,42.9
2018-05-12T11:39:18.571Z,43.0
2018-05-12T11:40:19.967Z,42.7
2018-05-12T11:41:21.361Z,43.0
2018-05-12T11:42:22.759Z,42.7
2018-05-12T11:43:24.154Z,42.5
2018-05-12T11:44:25.595Z,42.5
2018-05-12T11:45:26.966Z,42.7
2018-05-12T11:46:28.361Z,42.7
2018-05-12T11:47:29.760Z,42.5
2018-05-12T11:48:31.167Z,42.7
2018-05-12T11:49:32.574Z,43.0
2018-05-12T11:50:34.014Z,43.2
2018-05-12T11:51:35.405Z,42.4
2018-05-12T11:52:36.856Z,43.0
2018-05-12T11:53:38.284Z,42.1
2018-05-12T11:54:39.759Z,42.2
2018-05-12T11:55:41.160Z,42.6
2018-05-12T11:56:42.573Z,42.7
2018-05-12T11:57:43.994Z,43.1
2018-05-12T11:58:45.417Z,43.7
2018-05-12T11:59:46.816Z,44.1
2018-05-12T12:00:48.210Z,43.9
2018-05-12T12:01:49.606Z,43.8
2018-05-12T12:02:50.998Z,43.4
2018-05-12T12:03:52.471Z,43.2
2018-05-12T12:04:53.799Z,43.3
2018-05-12T12:05:55.182Z,43.0
2018-05-12T12:06:56.580Z,42.6
2018-05-12T12:07:57.977Z,42.8
2018-05-12T12:08:59.377Z,42.4
2018-05-12T12:10:00.764Z,42.6
2018-05-12T12:11:02.161Z,42.9
2018-05-12T12:12:03.555Z,42.1
2018-05-12T12:13:04.948Z,41.6
2018-05-12T12:14:06.341Z,41.7
2018-05-12T12:15:07.744Z,41.5
2018-05-12T12:16:09.142Z,41.3
2018-05-12T12:17:10.539Z,40.9
2018-05-12T12:18:11.937Z,40.8
2018-05-12T12:19:13.351Z,40.9
2018-05-12T12:20:14.749Z,40.4
2018-05-12T12:21:16.147Z,39.9
2018-05-12T12:22:17.549Z,39.9
2018-05-12T12:23:18.940Z,40.0
2018-05-12T12:24:20.328Z,40.3
2018-05-12T12:25:21.720Z,40.3
2018-05-12T12:26:23.130Z,40.1
2018-05-12T12:27:24.528Z,40.0
2018-05-12T12:28:25.925Z,40.0
2018-05-12T12:29:27.315Z,40.0
2018-05-12T12:30:28.709Z,40.0
2018-05-12T12:31:30.102Z,40.2
2018-05-12T12:32:32.636Z,40.0
2018-05-12T12:33:34.788Z,39.8
2018-05-12T12:34:36.257Z,39.8
2018-05-12T12:35:37.651Z,40.2
2018-05-12T12:36:39.055Z,40.7
2018-05-12T12:37:40.444Z,40.2
2018-05-12T12:38:41.836Z,40.2
2018-05-12T12:39:43.233Z,40.6
2018-05-12T12:40:44.641Z,40.1
2018-05-12T12:41:46.036Z,40.1
2018-05-12T12:42:48.037Z,40.3
2018-05-12T12:43:49.440Z,40.0
2018-05-12T12:44:50.858Z,39.9
2018-05-12T12:45:52.243Z,39.7
2018-05-12T12:46:53.674Z,39.6
2018-05-12T12:47:55.070Z,39.3
2018-05-12T12:48:56.480Z,39.3
2018-05-12T12:49:57.878Z,39.0
2018-05-12T12:50:59.279Z,39.0
2018-05-12T12:52:00.670Z,38.8
2018-05-12T12:53:02.071Z,39.1
2018-05-12T12:54:03.501Z,39.5
2018-05-12T12:55:04.895Z,39.8
2018-05-12T12:56:06.288Z,40.1
2018-05-12T12:57:07.769Z,40.8
2018-05-12T12:58:09.165Z,40.8
2018-05-12T12:59:10.566Z,40.7
2018-05-12T13:00:11.965Z,40.8
2018-05-12T13:01:13.358Z,40.4
2018-05-12T13:02:14.709Z,40.2
2018-05-12T13:03:16.103Z,40.1
2018-05-12T13:04:17.497Z,39.9
2018-05-12T13:05:18.888Z,39.7
2018-05-12T13:06:20.289Z,39.4
2018-05-12T13:07:21.666Z,39.6
2018-05-12T13:08:23.083Z,39.4
2018-05-12T13:09:24.479Z,39.1
2018-05-12T13:10:25.871Z,38.6
2018-05-12T13:11:27.273Z,38.6
2018-05-12T13:12:28.669Z,39.1
2018-05-12T13:13:30.067Z,38.6
2018-05-12T13:14:31.455Z,38.8
2018-05-12T13:15:32.857Z,38.6
2018-05-12T13:16:34.252Z,38.8
2018-05-12T13:17:36.584Z,38.8
2018-05-12T13:18:38.011Z,38.5
2018-05-12T13:19:39.412Z,38.3
2018-05-12T13:20:40.811Z,38.5
2018-05-12T13:21:42.200Z,38.3
2018-05-12T13:22:43.592Z,38.1
2018-05-12T13:23:44.991Z,37.5
2018-05-12T13:24:46.380Z,38.0
2018-05-12T13:25:47.779Z,38.0
2018-05-12T13:26:49.174Z,37.8
2018-05-12T13:27:50.668Z,38.0
2018-05-12T13:28:51.925Z,37.7
2018-05-12T13:29:53.404Z,37.6
2018-05-12T13:30:54.761Z,37.2
2018-05-12T13:31:56.157Z,37.0
2018-05-12T13:32:57.577Z,37.4
2018-05-12T13:33:58.969Z,37.3
2018-05-12T13:35:00.373Z,37.3
2018-05-12T13:36:01.769Z,37.7
2018-05-12T13:37:03.166Z,37.9
2018-05-12T13:38:04.568Z,37.7